createdAt,value
2019-04-11T00:00:53.075Z,5.10
2019-04-11T00:03:21.653Z,5.30
2019-04-11T00:05:48.205Z,5.30
2019-04-11T00:08:14.856Z,5.20
2019-04-11T00:10:41.675Z,5.10
2019-04-11T00:13:18.229Z,5.20
2019-04-11T00:15:37.029Z,5.30
2019-04-11T00:18:04.187Z,5.20
2019-04-11T00:20:31.666Z,5.00
2019-04-11T00:22:59.646Z,5.20
2019-04-11T00:25:27.376Z,5.00
2019-04-11T00:27:54.148Z,5.00
2019-04-11T00:30:20.980Z,4.90
2019-04-11T00:32:47.607Z,5.00
2019-04-11T00:35:14.149Z,5.00
2019-04-11T00:37:41.232Z,4.90
2019-04-11T00:40:08.973Z,4.80
2019-04-11T00:42:36.724Z,5.00
2019-04-11T00:45:05.414Z,5.00
2019-04-11T00:47:33.102Z,5.00
2019-04-11T00:50:00.907Z,5.00
2019-04-11T00:52:27.563Z,4.80
2019-04-11T00:54:55.295Z,4.80
2019-04-11T00:57:23.046Z,4.80
2019-04-11T00:59:50.836Z,4.60
2019-04-11T01:02:19.289Z,4.60
2019-04-11T01:04:45.873Z,4.40
2019-04-11T01:07:12.497Z,4.50
2019-04-11T01:09:40.141Z,4.60
2019-04-11T01:12:07.874Z,4.70
2019-04-11T01:14:37.108Z,4.70
2019-04-11T01:17:03.234Z,4.70
2019-04-11T01:19:30.886Z,4.40
2019-04-11T01:21:59.214Z,4.50
2019-04-11T01:24:26.024Z,4.50
2019-04-11T01:26:53.794Z,4.50
2019-04-11T01:29:20.429Z,4.50
2019-04-11T01:31:49.592Z,4.50
2019-04-11T01:34:16.254Z,4.30
2019-04-11T01:36:42.963Z,4.20
2019-04-11T01:39:21.054Z,4.30
2019-04-11T01:41:48.811Z,4.20
2019-04-11T01:44:16.475Z,4.30
2019-04-11T01:46:44.441Z,4.30
2019-04-11T01:49:16.965Z,4.20
2019-04-11T01:51:43.624Z,4.10
2019-04-11T01:54:11.185Z,3.80
2019-04-11T01:56:37.749Z,3.70
2019-04-11T01:59:05.437Z,3.70
2019-04-11T02:01:38.971Z,3.60
2019-04-11T02:04:12.557Z,3.50
2019-04-11T02:06:40.239Z,3.60
2019-04-11T02:09:11.592Z,3.40
2019-04-11T02:11:39.454Z,3.20
2019-04-11T02:14:12.472Z,3.10
2019-04-11T02:16:34.911Z,3.20
2019-04-11T02:19:01.671Z,3.20
2019-04-11T02:21:29.558Z,3.30
2019-04-11T02:24:13.233Z,3.20
2019-04-11T02:26:44.410Z,3.10
2019-04-11T02:29:11.136Z,3.00
2019-04-11T02:31:38.983Z,3.00
2019-04-11T02:34:06.464Z,2.90
2019-04-11T02:36:36.419Z,2.90
2019-04-11T02:39:12.153Z,2.80
2019-04-11T02:41:39.657Z,2.80
2019-04-11T02:44:26.509Z,2.80
2019-04-11T02:46:43.138Z,2.80
2019-04-11T02:49:03.846Z,2.80
2019-04-11T02:51:31.190Z,2.60
2019-04-11T02:53:58.965Z,2.60
2019-04-11T02:56:27.897Z,2.60
2019-04-11T02:58:55.245Z,2.70
2019-04-11T03:01:24.233Z,2.70
2019-04-11T03:03:51.982Z,2.60
2019-04-11T03:06:19.467Z,2.60
2019-04-11T03:08:46.512Z,2.70
2019-04-11T03:11:14.426Z,2.60
2019-04-11T03:13:46.086Z,2.70
2019-04-11T03:16:29.254Z,2.60
2019-04-11T03:18:59.344Z,2.50
2019-04-11T03:21:14.469Z,2.50
2019-04-11T03:23:41.735Z,2.50
2019-04-11T03:26:10.217Z,2.70
2019-04-11T03:28:40.625Z,2.40
2019-04-11T03:31:47.303Z,2.40
2019-04-11T03:37:00.135Z,2.50
2019-04-11T03:38:55.079Z,2.50
2019-04-11T03:41:21.990Z,2.50
2019-04-11T03:43:45.101Z,2.60
2019-04-11T03:46:20.243Z,2.40
2019-04-11T03:48:42.191Z,2.60
2019-04-11T03:51:01.912Z,2.50
2019-04-11T03:53:30.075Z,2.60
2019-04-11T03:55:59.146Z,2.50
2019-04-11T03:58:26.403Z,2.40
2019-04-11T04:00:57.310Z,2.30
2019-04-11T04:03:24.367Z,2.30
2019-04-11T04:05:52.874Z,2.30
2019-04-11T04:08:20.378Z,2.50
2019-04-11T04:11:00.663Z,2.50
2019-04-11T04:13:31.694Z,2.20
2019-04-11T04:16:12.183Z,2.30
2019-04-11T04:18:32.107Z,2.10
2019-04-11T04:21:06.987Z,2.10
2019-04-11T04:23:38.079Z,2.00
2019-04-11T04:26:09.551Z,1.90
2019-04-11T04:28:38.087Z,1.90
2019-04-11T04:31:06.716Z,2.10
2019-04-11T04:33:36.129Z,2.10
2019-04-11T04:36:06.616Z,2.20
2019-04-11T04:38:33.828Z,2.00
2019-04-11T04:41:16.800Z,2.00
2019-04-11T04:43:31.797Z,2.10
2019-04-11T04:46:20.518Z,2.20
2019-04-11T04:48:29.510Z,2.20
2019-04-11T04:50:57.646Z,2.20
2019-04-11T04:53:28.118Z,2.30
2019-04-11T04:55:54.378Z,2.30
2019-04-11T04:58:22.288Z,2.40
2019-04-11T05:00:53.251Z,2.20
2019-04-11T05:03:20.017Z,2.30
2019-04-11T05:05:48.511Z,2.20
2019-04-11T05:08:16.548Z,2.30
2019-04-11T05:10:44.844Z,2.40
2019-04-11T05:13:11.924Z,2.30
2019-04-11T05:15:41.584Z,2.20
2019-04-11T05:18:08.820Z,2.20
2019-04-11T05:20:36.599Z,2.30
2019-04-11T05:23:04.331Z,2.40
2019-04-11T05:25:31.100Z,2.60
2019-04-11T05:27:58.155Z,2.30
2019-04-11T05:30:25.255Z,2.30
2019-04-11T05:32:51.861Z,2.40
2019-04-11T05:35:18.553Z,2.40
2019-04-11T05:37:45.554Z,2.50
2019-04-11T05:40:12.995Z,2.70
2019-04-11T05:42:39.714Z,2.70
2019-04-11T05:45:11.613Z,2.70
2019-04-11T05:47:35.220Z,2.80
2019-04-11T05:50:15.832Z,2.70
2019-04-11T05:52:44.142Z,2.70
2019-04-11T05:55:13.768Z,2.80
2019-04-11T05:57:43.072Z,2.90
2019-04-11T06:00:11.930Z,2.90
2019-04-11T06:02:41.475Z,3.00
2019-04-11T06:05:11.037Z,3.10
2019-04-11T06:07:55.596Z,3.20
2019-04-11T06:10:26.086Z,3.30
2019-04-11T06:13:08.450Z,3.60
2019-04-11T06:15:42.837Z,3.60
2019-04-11T06:18:25.250Z,3.80
2019-04-11T06:20:44.997Z,3.60
2019-04-11T06:23:16.377Z,3.60
2019-04-11T06:25:46.863Z,3.70
2019-04-11T06:28:22.406Z,3.80
2019-04-11T06:31:07.674Z,3.90
2019-04-11T06:33:36.583Z,3.90
2019-04-11T06:36:05.776Z,3.80
2019-04-11T06:38:52.511Z,4.20
2019-04-11T06:41:24.376Z,4.00
2019-04-11T06:43:52.891Z,4.20
2019-04-11T06:46:21.553Z,4.40
2019-04-11T06:49:06.810Z,4.30
2019-04-11T06:51:38.307Z,4.20
2019-04-11T06:54:23.554Z,4.20
2019-04-11T06:56:52.277Z,4.30
2019-04-11T06:59:27.876Z,4.50
2019-04-11T07:02:07.505Z,4.40
2019-04-11T07:04:36.166Z,4.30
2019-04-11T07:07:04.751Z,4.30
2019-04-11T07:09:49.233Z,4.60
2019-04-11T07:12:26.803Z,4.60
2019-04-11T07:14:58.123Z,4.50
2019-04-11T07:17:43.813Z,4.60
2019-04-11T07:20:24.995Z,4.90
2019-04-11T07:23:03.738Z,5.00
2019-04-11T07:25:45.164Z,5.00
2019-04-11T07:28:14.468Z,5.10
2019-04-11T07:31:01.001Z,5.20
2019-04-11T07:33:31.048Z,5.30
2019-04-11T07:36:18.320Z,4.90
2019-04-11T07:38:52.136Z,5.00
2019-04-11T07:41:33.943Z,5.10
2019-04-11T07:44:00.808Z,5.50
2019-04-11T07:46:32.858Z,5.50
2019-04-11T07:48:59.534Z,5.50
2019-04-11T07:51:26.060Z,5.50
2019-04-11T07:53:54.583Z,5.50
2019-04-11T07:56:29.487Z,5.50
2019-04-11T07:59:15.000Z,5.70
2019-04-11T08:02:00.127Z,5.80
2019-04-11T08:04:45.512Z,5.60
2019-04-11T08:07:24.369Z,5.90
2019-04-11T08:10:02.435Z,6.00
2019-04-11T08:12:31.767Z,5.80
2019-04-11T08:15:01.365Z,5.80
2019-04-11T08:17:36.868Z,5.80
2019-04-11T08:20:06.277Z,5.80
2019-04-11T08:22:35.121Z,5.80
2019-04-11T08:25:13.222Z,6.00
2019-04-11T08:27:54.914Z,6.10
2019-04-11T08:30:14.823Z,6.10
2019-04-11T08:32:46.501Z,6.20
2019-04-11T08:35:15.870Z,6.30
2019-04-11T08:37:58.134Z,6.30
2019-04-11T08:40:26.677Z,6.50
2019-04-11T08:43:04.640Z,6.40
2019-04-11T08:45:33.929Z,6.40
2019-04-11T08:48:05.185Z,6.30
2019-04-11T08:50:42.854Z,6.30
2019-04-11T08:53:12.756Z,6.30
2019-04-11T08:55:48.614Z,6.30
2019-04-11T08:58:12.086Z,6.30
2019-04-11T09:00:44.657Z,6.60
2019-04-11T09:03:16.205Z,6.70
2019-04-11T09:05:53.393Z,6.80
2019-04-11T09:08:38.466Z,7.10
2019-04-11T09:11:10.717Z,7.00
2019-04-11T09:13:49.173Z,7.00
2019-04-11T09:16:23.879Z,7.20
2019-04-11T09:18:52.468Z,7.40
2019-04-11T09:21:37.833Z,7.50
2019-04-11T09:24:06.381Z,7.70
2019-04-11T09:26:51.983Z,7.40
2019-04-11T09:29:20.641Z,7.70
2019-04-11T09:32:05.828Z,7.80
2019-04-11T09:34:35.575Z,7.90
2019-04-11T09:37:05.241Z,7.90
2019-04-11T09:39:35.004Z,7.70
2019-04-11T09:42:22.674Z,7.90
2019-04-11T09:44:50.947Z,8.20
2019-04-11T09:47:19.954Z,8.20
2019-04-11T09:49:51.576Z,8.00
2019-04-11T09:52:23.017Z,7.70
2019-04-11T09:54:54.752Z,7.70
2019-04-11T09:57:23.282Z,7.40
2019-04-11T09:59:58.206Z,7.50
2019-04-11T10:02:27.510Z,7.40
2019-04-11T10:04:56.574Z,7.30
2019-04-11T10:07:41.961Z,7.20
2019-04-11T10:10:10.787Z,7.30
2019-04-11T10:12:40.487Z,7.30
2019-04-11T10:15:09.212Z,7.20
2019-04-11T10:17:40.476Z,7.10
2019-04-11T10:20:08.723Z,6.90
2019-04-11T10:22:38.311Z,7.00
2019-04-11T10:25:10.715Z,7.20
2019-04-11T10:27:40.558Z,7.10
2019-04-11T10:30:26.054Z,7.10
2019-04-11T10:33:09.348Z,7.20
2019-04-11T10:35:43.931Z,7.30
2019-04-11T10:38:12.404Z,7.10
2019-04-11T10:40:48.177Z,7.10
2019-04-11T10:43:16.823Z,7.20
2019-04-11T10:46:02.821Z,7.00
2019-04-11T10:48:38.752Z,6.60
2019-04-11T10:51:14.930Z,6.50
2019-04-11T10:53:43.704Z,6.40
2019-04-11T10:56:12.391Z,6.40
2019-04-11T10:58:47.100Z,6.30
2019-04-11T11:01:21.957Z,6.50
2019-04-11T11:03:57.274Z,6.50
2019-04-11T11:06:25.839Z,6.40
2019-04-11T11:08:57.555Z,6.50
2019-04-11T11:11:26.171Z,6.40
2019-04-11T11:14:05.333Z,6.30
2019-04-11T11:16:34.228Z,6.60
2019-04-11T11:19:33.501Z,6.50
2019-04-11T11:21:42.990Z,6.50
2019-04-11T11:24:28.550Z,6.40
2019-04-11T11:26:57.955Z,6.40
2019-04-11T11:29:31.943Z,6.50
2019-04-11T11:32:05.004Z,6.50
2019-04-11T11:34:41.003Z,6.60
2019-04-11T11:37:29.119Z,6.60
2019-04-11T11:40:07.784Z,6.50
2019-04-11T11:42:50.586Z,6.50
2019-04-11T11:45:21.571Z,6.60
2019-04-11T11:47:53.244Z,6.70
2019-04-11T11:50:23.662Z,6.70
2019-04-11T11:53:13.399Z,6.70
2019-04-11T11:55:41.841Z,6.60
2019-04-11T11:58:23.597Z,6.50
2019-04-11T12:00:54.004Z,6.40
2019-04-11T12:03:25.185Z,6.40
2019-04-11T12:05:54.059Z,6.40
2019-04-11T12:08:25.587Z,6.30
2019-04-11T12:10:54.480Z,6.50
2019-04-11T12:13:22.971Z,6.60
2019-04-11T12:16:08.207Z,6.60
2019-04-11T12:18:51.843Z,6.60
2019-04-11T12:21:34.700Z,6.80
2019-04-11T12:24:09.742Z,6.70
2019-04-11T12:26:43.223Z,6.80
2019-04-11T12:29:12.192Z,7.00
2019-04-11T12:31:41.779Z,7.00
2019-04-11T12:34:27.360Z,6.90
2019-04-11T12:36:54.741Z,7.10
2019-04-11T12:39:36.816Z,7.20
2019-04-11T12:42:08.088Z,7.10
2019-04-11T12:44:53.733Z,7.20
2019-04-11T12:47:22.299Z,7.00
2019-04-11T12:49:52.939Z,7.00
2019-04-11T12:52:30.515Z,7.30
2019-04-11T12:54:59.057Z,7.40
2019-04-11T12:57:44.477Z,7.20
2019-04-11T13:00:19.533Z,7.10
2019-04-11T13:03:00.620Z,6.90
2019-04-11T13:05:30.562Z,6.80
2019-04-11T13:08:15.675Z,6.80
2019-04-11T13:10:43.719Z,6.90
2019-04-11T13:13:15.409Z,6.80
2019-04-11T13:15:44.006Z,6.80
2019-04-11T13:18:26.083Z,6.80
2019-04-11T13:21:03.545Z,6.80
2019-04-11T13:23:32.007Z,6.90
2019-04-11T13:26:17.412Z,6.60
2019-04-11T13:28:46.173Z,6.50
2019-04-11T13:31:31.306Z,6.20
2019-04-11T13:34:02.639Z,6.20
2019-04-11T13:36:39.958Z,6.20
2019-04-11T13:39:06.840Z,6.30
2019-04-11T13:41:50.414Z,6.20
2019-04-11T13:44:16.988Z,6.40
2019-04-11T13:46:51.491Z,6.60
2019-04-11T13:49:35.237Z,6.50
2019-04-11T13:52:20.897Z,6.40
2019-04-11T13:54:52.230Z,6.20
2019-04-11T13:57:26.478Z,6.30
2019-04-11T14:00:12.626Z,6.10
2019-04-11T14:02:50.999Z,5.90
2019-04-11T14:05:21.675Z,5.80
2019-04-11T14:07:50.253Z,5.80
2019-04-11T14:10:18.313Z,5.90
2019-04-11T14:12:45.543Z,5.80
2019-04-11T14:15:14.709Z,5.80
2019-04-11T14:17:52.110Z,5.90
2019-04-11T14:20:29.221Z,5.90
2019-04-11T14:23:05.088Z,5.90
2019-04-11T14:25:46.339Z,6.10
2019-04-11T14:28:15.170Z,6.10
2019-04-11T14:30:56.134Z,6.20
2019-04-11T14:33:27.213Z,6.30
2019-04-11T14:36:14.373Z,6.20
2019-04-11T14:38:47.561Z,6.20
2019-04-11T14:41:23.324Z,6.30
2019-04-11T14:43:51.991Z,6.30
2019-04-11T14:46:37.267Z,6.30
2019-04-11T14:49:05.719Z,6.30
2019-04-11T14:51:52.790Z,6.40
2019-04-11T14:54:21.546Z,6.40
2019-04-11T14:56:52.160Z,6.40
2019-04-11T14:59:35.523Z,6.30
2019-04-11T15:02:07.119Z,6.00
2019-04-11T15:04:44.847Z,5.60
2019-04-11T15:07:15.506Z,5.50
2019-04-11T15:09:52.651Z,5.40
2019-04-11T15:12:21.206Z,5.10
2019-04-11T15:15:06.480Z,5.10
2019-04-11T15:17:36.118Z,5.10
2019-04-11T15:20:14.982Z,5.20
2019-04-11T15:22:43.523Z,5.30
2019-04-11T15:25:21.900Z,5.20
2019-04-11T15:28:08.025Z,5.30
2019-04-11T15:30:53.151Z,5.20
2019-04-11T15:33:39.130Z,5.20
2019-04-11T15:36:07.675Z,5.20
2019-04-11T15:38:53.711Z,5.30
2019-04-11T15:41:20.369Z,5.20
2019-04-11T15:43:49.197Z,5.30
2019-04-11T15:46:17.773Z,5.40
2019-04-11T15:48:47.331Z,5.30
2019-04-11T15:51:31.091Z,5.50
2019-04-11T15:54:00.122Z,5.60
2019-04-11T15:56:42.010Z,5.60
2019-04-11T15:59:13.206Z,5.50
2019-04-11T16:01:53.792Z,5.60
2019-04-11T16:04:31.372Z,5.70
2019-04-11T16:07:09.354Z,5.70
2019-04-11T16:09:36.026Z,5.60
2019-04-11T16:12:22.832Z,5.60
2019-04-11T16:14:51.257Z,5.60
2019-04-11T16:17:36.909Z,5.60
2019-04-11T16:20:04.848Z,5.50
2019-04-11T16:22:55.048Z,5.40
2019-04-11T16:25:20.724Z,5.50
2019-04-11T16:27:49.194Z,5.50
2019-04-11T16:30:27.066Z,5.60
2019-04-11T16:32:59.773Z,5.60
2019-04-11T16:35:46.104Z,5.40
2019-04-11T16:38:18.791Z,5.40
2019-04-11T16:41:02.897Z,5.50
2019-04-11T16:43:32.053Z,5.40
2019-04-11T16:46:17.549Z,5.50
2019-04-11T16:48:55.666Z,5.30
2019-04-11T16:51:30.398Z,5.50
2019-04-11T16:53:51.387Z,5.40
2019-04-11T16:56:18.111Z,5.50
2019-04-11T16:58:49.364Z,5.60
2019-04-11T17:01:14.195Z,5.40
2019-04-11T17:03:40.765Z,5.50
2019-04-11T17:06:26.496Z,5.40
2019-04-11T17:08:56.434Z,5.50
2019-04-11T17:11:26.669Z,5.50
2019-04-11T17:13:56.960Z,5.30
2019-04-11T17:16:22.555Z,5.40
2019-04-11T17:18:49.712Z,5.40
2019-04-11T17:21:16.453Z,5.40
2019-04-11T17:23:46.869Z,5.20
2019-04-11T17:26:11.619Z,5.20
2019-04-11T17:28:38.256Z,5.30
2019-04-11T17:31:04.780Z,5.20
2019-04-11T17:33:31.366Z,5.20
2019-04-11T17:36:02.097Z,5.00
2019-04-11T17:38:26.385Z,5.00
2019-04-11T17:40:53.031Z,5.00
2019-04-11T17:43:19.606Z,4.80
2019-04-11T17:45:46.245Z,5.00
2019-04-11T17:48:12.723Z,5.10
2019-04-11T17:50:39.448Z,5.00
2019-04-11T17:53:06.120Z,4.80
2019-04-11T17:55:33.149Z,4.80
2019-04-11T17:57:59.845Z,4.90
2019-04-11T18:00:31.783Z,4.90
2019-04-11T18:02:58.464Z,5.10
2019-04-11T18:05:24.973Z,4.90
2019-04-11T18:07:51.907Z,4.80
2019-04-11T18:10:21.243Z,4.80
2019-04-11T18:12:47.858Z,4.60
2019-04-11T18:15:15.568Z,4.80
2019-04-11T18:17:42.193Z,4.70
2019-04-11T18:20:09.074Z,4.70
2019-04-11T18:22:35.914Z,4.60
2019-04-11T18:25:04.930Z,4.70
2019-04-11T18:27:31.404Z,4.80
2019-04-11T18:29:57.970Z,5.00
2019-04-11T18:32:24.609Z,4.90
2019-04-11T18:34:52.882Z,5.00
2019-04-11T18:37:19.530Z,5.00
2019-04-11T18:39:46.213Z,4.70
2019-04-11T18:42:12.836Z,4.60
2019-04-11T18:44:39.495Z,4.60
2019-04-11T18:47:06.244Z,4.70
2019-04-11T18:49:33.006Z,4.90
2019-04-11T18:51:59.758Z,4.90
2019-04-11T18:54:26.516Z,4.80
2019-04-11T18:56:53.049Z,4.50
2019-04-11T18:59:19.705Z,4.60
2019-04-11T19:01:46.363Z,4.80
2019-04-11T19:04:13.019Z,4.80
2019-04-11T19:06:42.664Z,4.70
2019-04-11T19:09:13.862Z,4.80
2019-04-11T19:11:41.430Z,4.70
2019-04-11T19:14:08.663Z,4.80
2019-04-11T19:16:35.718Z,4.70
2019-04-11T19:19:02.962Z,4.60
2019-04-11T19:21:31.122Z,4.50
2019-04-11T19:23:57.659Z,4.70
2019-04-11T19:26:25.427Z,4.90
2019-04-11T19:28:54.915Z,4.70
2019-04-11T19:31:20.685Z,4.60
2019-04-11T19:33:47.501Z,4.80
2019-04-11T19:36:13.984Z,4.70
2019-04-11T19:38:42.967Z,4.70
2019-04-11T19:41:09.003Z,4.80
2019-04-11T19:43:35.742Z,4.70
2019-04-11T19:46:02.410Z,4.80
2019-04-11T19:48:30.429Z,4.80
2019-04-11T19:50:58.984Z,4.60
2019-04-11T19:53:25.631Z,4.40
2019-04-11T19:55:57.236Z,4.60
2019-04-11T19:58:25.781Z,4.60
2019-04-11T20:00:53.901Z,4.50
2019-04-11T20:03:21.828Z,4.40
2019-04-11T20:05:49.134Z,4.60
2019-04-11T20:08:15.698Z,4.90
2019-04-11T20:10:44.021Z,4.50
2019-04-11T20:13:10.496Z,4.50
2019-04-11T20:15:39.944Z,4.60
2019-04-11T20:18:05.409Z,4.60
2019-04-11T20:20:32.196Z,4.50
2019-04-11T20:22:59.577Z,4.30
2019-04-11T20:25:26.483Z,4.40
2019-04-11T20:27:53.558Z,4.50
2019-04-11T20:30:20.286Z,4.60
2019-04-11T20:32:47.151Z,4.50
2019-04-11T20:35:13.905Z,4.20
2019-04-11T20:37:44.415Z,4.10
2019-04-11T20:40:11.320Z,4.00
2019-04-11T20:42:39.598Z,4.10
2019-04-11T20:45:06.437Z,4.10
2019-04-11T20:47:32.996Z,4.00
2019-04-11T20:50:07.011Z,3.90
2019-04-11T20:52:29.800Z,3.80
2019-04-11T20:54:56.408Z,3.70
2019-04-11T20:57:26.056Z,3.70
2019-04-11T20:59:51.530Z,3.60
2019-04-11T21:02:18.193Z,3.40
2019-04-11T21:04:44.814Z,3.30
2019-04-11T21:07:11.375Z,3.30
2019-04-11T21:09:37.937Z,3.20
2019-04-11T21:12:04.912Z,3.20
2019-04-11T21:14:33.544Z,3.10
2019-04-11T21:17:00.201Z,3.00
2019-04-11T21:19:27.846Z,3.00
2019-04-11T21:21:54.500Z,2.90
2019-04-11T21:24:21.166Z,2.90
2019-04-11T21:26:49.389Z,2.90
2019-04-11T21:29:16.091Z,2.80
2019-04-11T21:31:42.808Z,2.80
2019-04-11T21:34:10.185Z,2.70
2019-04-11T21:36:36.974Z,2.80
2019-04-11T21:39:05.867Z,2.90
2019-04-11T21:41:36.021Z,2.70
2019-04-11T21:44:00.866Z,2.70
2019-04-11T21:46:27.410Z,2.70
2019-04-11T21:48:53.974Z,2.60
2019-04-11T21:51:20.614Z,2.70
2019-04-11T21:53:47.281Z,2.70
2019-04-11T21:56:15.986Z,2.60
2019-04-11T21:58:44.001Z,2.50
2019-04-11T22:01:14.050Z,2.50
2019-04-11T22:03:40.904Z,2.60
2019-04-11T22:06:09.136Z,2.60
2019-04-11T22:08:35.835Z,2.50
2019-04-11T22:11:04.535Z,2.50
2019-04-11T22:13:31.190Z,2.60
2019-04-11T22:15:57.838Z,2.70
2019-04-11T22:18:24.552Z,2.70
2019-04-11T22:20:51.251Z,2.70
2019-04-11T22:23:18.833Z,2.70
2019-04-11T22:25:45.605Z,2.60
2019-04-11T22:28:13.142Z,2.60
2019-04-11T22:30:39.909Z,2.70
2019-04-11T22:33:12.859Z,2.80
2019-04-11T22:35:39.542Z,2.70
2019-04-11T22:38:06.081Z,2.90
2019-04-11T22:40:32.646Z,2.90
2019-04-11T22:43:00.181Z,3.00
2019-04-11T22:45:27.261Z,3.10
2019-04-11T22:47:53.982Z,3.30
2019-04-11T22:50:21.744Z,3.50
2019-04-11T22:52:48.379Z,3.70
2019-04-11T22:55:15.142Z,3.50
2019-04-11T22:57:43.750Z,3.60
2019-04-11T23:00:14.799Z,3.70
2019-04-11T23:02:47.389Z,3.60
2019-04-11T23:05:14.986Z,3.80
2019-04-11T23:07:43.153Z,3.90
2019-04-11T23:10:09.811Z,3.80
2019-04-11T23:12:36.438Z,3.80
2019-04-11T23:15:05.568Z,3.80
2019-04-11T23:17:32.428Z,3.60
2019-04-11T23:19:59.058Z,3.80
2019-04-11T23:22:25.617Z,3.70
2019-04-11T23:24:52.148Z,3.60
2019-04-11T23:27:18.814Z,3.50
2019-04-11T23:29:47.144Z,3.60
2019-04-11T23:32:13.925Z,3.60
2019-04-11T23:34:40.545Z,3.80
2019-04-11T23:37:07.806Z,3.90
2019-04-11T23:39:34.336Z,3.80
2019-04-11T23:42:01.122Z,3.60
2019-04-11T23:44:27.932Z,3.60
2019-04-11T23:46:54.990Z,3.80
2019-04-11T23:49:24.906Z,3.80
2019-04-11T23:51:50.086Z,3.80
2019-04-11T23:54:22.980Z,3.80
2019-04-11T23:56:45.079Z,3.80
2019-04-11T23:59:11.606Z,3.80
